logo
Rechercher aéroport 
image banner adimage banner adimage banner ad
image banner ad

VIJU - Jammu

Situé à Jammu, India

ICAO - VIJU, IATA - IXJ

Données fournies par Airmate  

Information générale

Coordonnées: N32°41'36" E74°50'22"
Élévation : 964 feet MSL.
Variation magnétique : 2° East
Voir autres Aéroports à Jammu and Kashmir

Données opérationnelles

Special qualification required
Heure actuelle UTC:
Heure actuelle locale:
Météo
TAF: TAF VIJU 170930Z 1718/1812 01010KT 6000 FEW025 BECMG 1800/1802 SCT025 SCT090 BECMG 1806/1808 24010KT 5000 TSRA SCT025 FEW030CB BKN090
Voir NOTAMs / SUP AIP / TFR affectant cet aéroport [VIEW]
Fréquences de communication: [VIEW]

Pistes:

Identifiant RWYQFULongueur (ft)Largeur (ft)SurfaceLDA (ft)
18177°8000151UNK
36357°8000151UNK

Coordonnées de l'aéroport

Adresse: Jammu India

Vue satellite de VIJU